Time;durP1;ratioP1;P1;durP2;ratioP2;P2;SDS_P1;SDS_P2;PMS_P1;PMS_P2;Temp;Humidity;BMP_temperature;BMP_pressure;BME280_temperature;BME280_humidity;BME280_pressure;Samples;Min_cycle;Max_cycle;Signal;HPM_P1;HPM_P2
2022/08/06 00:00:16;;;;;;;6.78;4.68;;;;;;;23.33;66.14;100303.38;5052321;28;20032;-74
2022/08/06 00:02:42;;;;;;;6.40;4.72;;;;;;;23.32;65.97;100319.31;5052352;28;20032;-74
2022/08/06 00:05:07;;;;;;;7.32;5.20;;;;;;;23.33;66.83;100317.97;5053524;28;20024;-74
2022/08/06 00:07:34;;;;;;;5.13;4.57;;;;;;;23.32;66.65;100330.97;5053348;28;20106;-74
2022/08/06 00:10:00;;;;;;;5.68;5.05;;;;;;;23.29;66.92;100324.19;5053549;28;20036;-75
2022/08/06 00:12:25;;;;;;;6.80;5.05;;;;;;;23.29;67.81;100317.56;5051608;28;20067;-75
2022/08/06 00:14:51;;;;;;;37.65;8.73;;;;;;;23.27;68.21;100337.78;5053643;28;20027;-75
2022/08/06 00:17:18;;;;;;;21.83;7.43;;;;;;;23.21;71.18;100343.03;5053002;28;20028;-75
2022/08/06 00:19:43;;;;;;;10.43;6.80;;;;;;;23.00;73.24;100351.94;5052144;28;20032;-74
2022/08/06 00:22:09;;;;;;;8.35;6.45;;;;;;;22.79;75.07;100374.59;5052120;28;20021;-75
2022/08/06 00:24:34;;;;;;;10.77;6.10;;;;;;;22.61;75.85;100391.03;5053671;28;20025;-75
2022/08/06 00:26:59;;;;;;;8.67;6.13;;;;;;;22.43;77.05;100401.63;5053220;28;20075;-75
2022/08/06 00:29:25;;;;;;;7.47;6.28;;;;;;;22.30;77.82;100415.53;5053300;28;20458;-74
2022/08/06 00:31:50;;;;;;;7.63;6.85;;;;;;;22.19;78.96;100410.00;5052060;28;20035;-74
2022/08/06 00:34:16;;;;;;;7.15;6.38;;;;;;;22.10;78.76;100412.06;5053373;28;20036;-74
2022/08/06 00:36:41;;;;;;;12.52;7.03;;;;;;;22.03;78.81;100395.31;5052941;28;20039;-75
2022/08/06 00:39:07;;;;;;;8.23;6.28;;;;;;;21.98;79.82;100381.72;5052916;28;20059;-73
2022/08/06 00:41:33;;;;;;;6.80;5.88;;;;;;;21.93;80.94;100361.50;5053118;28;20424;-75
2022/08/06 00:43:59;;;;;;;8.50;6.13;;;;;;;21.88;81.01;100345.75;5053227;28;20021;-74
2022/08/06 00:46:25;;;;;;;7.88;6.18;;;;;;;21.84;81.05;100338.72;5052884;28;20060;-75
2022/08/06 00:48:51;;;;;;;7.32;6.38;;;;;;;21.83;81.79;100335.03;5052913;28;20060;-76
2022/08/06 00:51:16;;;;;;;7.03;6.03;;;;;;;21.79;82.02;100336.75;5053117;28;20470;-75
2022/08/06 00:53:42;;;;;;;8.02;6.43;;;;;;;21.74;82.23;100329.75;5053267;28;20103;-75
2022/08/06 00:56:07;;;;;;;6.40;5.80;;;;;;;21.72;82.09;100346.22;5051846;28;20025;-75
2022/08/06 00:58:33;;;;;;;7.95;6.15;;;;;;;21.70;82.23;100343.88;5053151;28;20036;-74
2022/08/06 01:00:58;;;;;;;6.82;6.10;;;;;;;21.71;82.13;100351.25;5052917;28;20029;-75
2022/08/06 01:03:24;;;;;;;6.70;5.65;;;;;;;21.71;82.39;100350.47;5052903;28;20029;-75
2022/08/06 01:05:49;;;;;;;9.57;6.75;;;;;;;21.71;82.43;100350.47;5051435;28;20033;-74
2022/08/06 01:08:15;;;;;;;7.80;5.90;;;;;;;21.69;82.61;100351.03;5052717;28;20386;-75
2022/08/06 01:10:40;;;;;;;6.68;5.97;;;;;;;21.75;82.98;100345.84;5052776;28;20461;-75
2022/08/06 01:13:06;;;;;;;7.18;5.43;;;;;;;21.76;83.07;100332.88;5052864;28;20024;-75
2022/08/06 01:15:32;;;;;;;6.65;5.82;;;;;;;21.78;82.39;100341.03;5052769;28;20060;-74
2022/08/06 01:18:08;;;;;;;9.02;5.53;;;;;;;21.80;82.36;100344.94;5051519;28;20112;-75
2022/08/06 01:20:55;;;;;;;7.30;5.70;;;;;;;21.82;82.62;100353.09;5052922;28;20056;-75
2022/08/06 01:23:44;;;;;;;6.10;5.25;;;;;;;21.81;82.66;100371.91;5052079;28;20029;-75
2022/08/06 01:26:31;;;;;;;7.38;6.25;;;;;;;21.83;82.00;100380.84;5051970;28;20083;-75
2022/08/06 01:29:18;;;;;;;6.22;5.47;;;;;;;21.86;82.28;100379.69;5054854;28;20029;-74
2022/08/06 01:31:45;;;;;;;8.27;5.45;;;;;;;21.86;81.89;100380.47;5056740;28;20461;-74
2022/08/06 01:34:17;;;;;;;6.10;5.57;;;;;;;21.89;81.50;100385.13;5055453;28;20036;-74
2022/08/06 01:36:46;;;;;;;7.97;6.20;;;;;;;21.93;81.08;100402.22;5055183;28;20029;-74
2022/08/06 01:39:13;;;;;;;7.28;5.80;;;;;;;21.94;81.90;100401.66;5055126;28;20045;-76
2022/08/06 01:41:45;;;;;;;6.38;5.43;;;;;;;21.95;81.75;100402.44;5055294;28;20115;-76
2022/08/06 01:44:14;;;;;;;8.13;5.32;;;;;;;21.94;81.57;100401.66;5055350;28;20055;-74
2022/08/06 01:46:43;;;;;;;6.60;6.00;;;;;;;21.92;81.49;100401.47;5055005;28;20423;-74
2022/08/06 01:49:09;;;;;;;5.78;5.22;;;;;;;21.98;81.29;100407.91;5054807;28;20087;-74
2022/08/06 01:51:35;;;;;;;8.60;5.90;;;;;;;21.98;81.80;100413.72;5054851;28;20028;-75
2022/08/06 01:54:03;;;;;;;9.85;6.75;;;;;;;21.99;81.69;100424.03;5055288;28;20029;-75
2022/08/06 01:56:30;;;;;;;9.60;6.40;;;;;;;21.97;81.33;100425.97;5055069;28;20029;-75
2022/08/06 01:58:56;;;;;;;9.63;7.07;;;;;;;21.97;81.57;100438.38;5054944;28;20251;-75
2022/08/06 02:01:22;;;;;;;8.55;7.32;;;;;;;21.95;81.31;100446.88;5054790;28;20037;-74
2022/08/06 02:03:51;;;;;;;10.82;8.82;;;;;;;21.90;80.64;100450.72;5054651;28;20189;-74
2022/08/06 02:06:28;;;;;;;11.88;8.25;;;;;;;21.85;80.85;100451.66;5054638;28;20482;-74
2022/08/06 02:08:55;;;;;;;10.10;8.30;;;;;;;21.82;81.33;100452.81;5054744;28;20033;-75
2022/08/06 02:11:20;;;;;;;11.73;8.90;;;;;;;21.79;81.04;100462.66;5054837;28;20055;-74
2022/08/06 02:13:46;;;;;;;10.40;8.15;;;;;;;21.75;81.51;100465.16;5054483;28;20037;-74
2022/08/06 02:16:12;;;;;;;13.07;8.77;;;;;;;21.75;81.11;100473.09;5037725;28;20120;-74
2022/08/06 02:18:40;;;;;;;9.60;8.48;;;;;;;21.72;81.57;100489.56;5054225;28;20025;-76
2022/08/06 02:21:08;;;;;;;8.95;7.13;;;;;;;21.65;81.78;100488.13;5037705;28;20033;-75
2022/08/06 02:23:35;;;;;;;12.35;7.10;;;;;;;21.58;81.77;100493.88;5054355;28;20022;-75
2022/08/06 02:26:01;;;;;;;7.63;6.10;;;;;;;21.55;81.53;100504.50;5055474;28;20032;-75
2022/08/06 02:28:27;;;;;;;11.93;7.18;;;;;;;21.49;81.72;100500.94;5055415;28;20028;-75
2022/08/06 02:30:55;;;;;;;7.72;6.20;;;;;;;21.45;81.10;100514.28;5055442;28;20051;-75
2022/08/06 02:33:21;;;;;;;6.70;5.82;;;;;;;21.40;80.79;100515.16;5054168;28;20036;-75
2022/08/06 02:36:08;;;;;;;7.85;6.05;;;;;;;21.23;80.77;100512.66;5037485;28;20385;-74
2022/08/06 02:38:41;;;;;;;7.13;5.75;;;;;;;21.25;80.84;100533.22;5054621;28;20486;-74
2022/08/06 02:41:36;;;;;;;8.18;5.68;;;;;;;21.19;80.88;100542.03;5054407;28;20425;-74
2022/08/06 02:44:27;;;;;;;8.05;5.50;;;;;;;21.09;80.83;100548.91;5054153;28;20386;-74
2022/08/06 02:46:59;;;;;;;6.72;5.68;;;;;;;21.05;81.32;100554.25;5053877;28;20029;-75
2022/08/06 02:49:26;;;;;;;7.75;5.82;;;;;;;20.95;80.95;100544.44;5053783;28;20477;-74
2022/08/06 02:52:04;;;;;;;5.97;5.03;;;;;;;21.00;81.66;100555.94;5054977;28;20462;-75
2022/08/06 02:54:38;;;;;;;6.43;5.35;;;;;;;20.98;81.91;100552.03;5054859;28;20086;-74
2022/08/06 02:57:06;;;;;;;7.70;5.88;;;;;;;20.84;81.86;100542.56;5054064;28;20043;-74
2022/08/06 02:59:35;;;;;;;10.50;5.80;;;;;;;20.72;81.61;100550.72;5053866;28;20119;-73
2022/08/06 03:02:02;;;;;;;7.05;5.68;;;;;;;20.66;81.22;100541.28;5053712;28;20091;-74
2022/08/06 03:04:30;;;;;;;6.72;5.68;;;;;;;20.55;81.62;100534.91;5054674;28;20487;-73
2022/08/06 03:06:58;;;;;;;8.38;5.15;;;;;;;20.36;81.63;100524.19;5055068;28;20037;-74
2022/08/06 03:09:24;;;;;;;5.38;4.88;;;;;;;20.37;81.79;100548.19;5053702;28;20033;-75
2022/08/06 03:11:50;;;;;;;7.13;4.88;;;;;;;20.32;81.96;100541.16;5036751;28;20029;-75
2022/08/06 03:14:17;;;;;;;6.40;4.40;;;;;;;20.25;82.23;100523.63;5053525;28;20065;-74
2022/08/06 03:16:43;;;;;;;5.28;4.25;;;;;;;20.22;81.97;100499.41;5054473;28;20040;-74
2022/08/06 03:19:09;;;;;;;4.35;3.95;;;;;;;20.14;81.78;100492.69;5054316;28;20033;-74
2022/08/06 03:21:35;;;;;;;6.53;3.83;;;;;;;20.13;81.78;100508.53;5052984;28;20057;-75
2022/08/06 03:24:01;;;;;;;4.10;3.70;;;;;;;20.06;82.47;100509.19;5054921;28;20052;-74
2022/08/06 03:26:28;;;;;;;4.90;3.85;;;;;;;20.03;82.52;100503.72;5052921;28;20062;-75
2022/08/06 03:28:55;;;;;;;4.57;3.97;;;;;;;19.87;83.41;100488.13;5052846;28;20378;-75
2022/08/06 03:31:21;;;;;;;3.70;3.10;;;;;;;19.89;83.64;100497.88;5052899;28;20126;-74
2022/08/06 03:33:47;;;;;;;3.50;2.80;;;;;;;19.85;84.17;100508.22;5052785;28;20416;-74
2022/08/06 03:36:13;;;;;;;3.20;2.90;;;;;;;19.72;84.10;100506.06;5052833;28;20033;-74
2022/08/06 03:38:41;;;;;;;3.03;2.75;;;;;;;19.78;84.51;100543.66;5036397;28;20091;-74
2022/08/06 03:41:07;;;;;;;3.25;2.95;;;;;;;19.75;85.13;100545.56;5052777;28;20047;-75
2022/08/06 03:43:33;;;;;;;4.75;3.40;;;;;;;19.60;85.59;100541.59;5052853;28;20025;-75
2022/08/06 03:46:00;;;;;;;6.40;3.05;;;;;;;19.62;85.58;100550.50;5052556;28;20044;-74
2022/08/06 03:48:29;;;;;;;4.03;2.80;;;;;;;19.55;86.15;100560.63;5052695;28;20033;-73
2022/08/06 03:50:55;;;;;;;2.85;2.65;;;;;;;19.51;86.10;100552.25;5051644;28;20119;-73
2022/08/06 03:53:24;;;;;;;3.63;2.50;;;;;;;19.51;86.08;100563.84;5052743;28;20060;-76
2022/08/06 03:55:50;;;;;;;3.70;2.42;;;;;;;19.50;86.40;100568.09;5052501;28;20477;-74
2022/08/06 03:58:16;;;;;;;2.85;2.58;;;;;;;19.39;86.26;100576.16;5052474;28;20031;-74
2022/08/06 04:00:49;;;;;;;6.60;3.22;;;;;;;19.42;86.74;100596.13;5052345;28;20036;-75
2022/08/06 04:03:15;;;;;;;4.32;3.28;;;;;;;19.36;87.04;100595.41;5052595;28;20541;-73
2022/08/06 04:05:42;;;;;;;3.70;2.80;;;;;;;19.19;87.20;100594.88;5052437;28;20155;-74
2022/08/06 04:08:09;;;;;;;4.68;3.03;;;;;;;19.12;87.56;100607.03;5052329;28;20040;-74
2022/08/06 04:10:42;;;;;;;4.95;3.33;;;;;;;19.02;87.72;100600.81;5052211;28;20029;-74
2022/08/06 04:13:11;;;;;;;5.15;3.53;;;;;;;18.90;88.09;100630.47;5052187;28;20029;-74
2022/08/06 04:15:37;;;;;;;4.07;3.03;;;;;;;18.70;88.06;100640.44;5052107;28;20040;-74
2022/08/06 04:18:05;;;;;;;3.55;2.63;;;;;;;18.53;88.24;100649.28;5053536;28;20052;-74
2022/08/06 04:20:31;;;;;;;3.08;2.45;;;;;;;18.37;88.68;100652.34;5052115;28;20033;-75
2022/08/06 04:22:57;;;;;;;2.40;2.20;;;;;;;18.26;88.62;100664.75;5052165;28;20036;-75
2022/08/06 04:25:23;;;;;;;4.43;2.30;;;;;;;18.08;88.74;100671.22;5053325;28;20032;-74
2022/08/06 04:27:49;;;;;;;4.32;2.28;;;;;;;17.87;89.09;100681.59;5051695;28;20032;-73
2022/08/06 04:30:15;;;;;;;3.38;2.03;;;;;;;17.67;89.24;100694.31;5051832;28;20389;-74
2022/08/06 04:32:41;;;;;;;2.63;2.10;;;;;;;17.48;89.28;100704.94;5052268;28;20029;-75
2022/08/06 04:35:07;;;;;;;6.60;2.40;;;;;;;17.24;89.10;100708.41;5051885;28;20041;-74
2022/08/06 04:37:33;;;;;;;5.22;3.00;;;;;;;17.04;88.24;100726.84;5053156;28;20064;-74
2022/08/06 04:39:59;;;;;;;3.33;2.28;;;;;;;16.88;87.98;100731.31;5051860;28;20072;-75
2022/08/06 04:42:24;;;;;;;3.28;2.50;;;;;;;16.78;88.00;100738.69;5052979;28;20033;-75
2022/08/06 04:44:50;;;;;;;3.97;2.55;;;;;;;16.70;88.09;100754.16;5035443;28;20037;-73
2022/08/06 04:47:16;;;;;;;5.65;1.90;;;;;;;16.60;88.47;100750.72;5051672;28;20025;-73
2022/08/06 04:49:41;;;;;;;4.35;2.22;;;;;;;16.50;88.71;100760.94;5052072;28;20078;-74
2022/08/06 04:52:07;;;;;;;3.05;2.00;;;;;;;16.34;89.23;100765.38;5052842;28;20033;-74
2022/08/06 04:54:32;;;;;;;2.22;1.80;;;;;;;16.26;89.39;100769.28;5051688;28;20059;-75
2022/08/06 04:56:57;;;;;;;3.70;2.20;;;;;;;16.21;90.55;100776.63;5052809;28;20037;-74
2022/08/06 04:59:23;;;;;;;3.33;2.30;;;;;;;16.15;90.43;100772.94;5053066;28;20489;-74
2022/08/06 05:01:48;;;;;;;5.35;2.40;;;;;;;16.10;91.07;100776.59;5053664;28;20135;-74
2022/08/06 05:04:13;;;;;;;3.08;2.30;;;;;;;16.04;91.36;100785.25;5057333;28;20035;-74
2022/08/06 05:06:59;;;;;;;5.43;2.30;;;;;;;16.07;92.05;100794.94;5057604;28;20120;-74
2022/08/06 05:09:26;;;;;;;4.28;2.55;;;;;;;16.05;92.25;100800.44;5056898;28;20029;-75
2022/08/06 05:12:00;;;;;;;3.88;3.10;;;;;;;16.06;92.30;100807.75;5056012;28;20025;-74
2022/08/06 05:14:37;;;;;;;4.88;3.22;;;;;;;16.01;92.49;100814.31;5057065;28;20025;-73
2022/08/06 05:17:03;;;;;;;5.93;3.55;;;;;;;15.95;93.17;100822.16;5055526;28;20485;-74
2022/08/06 05:19:35;;;;;;;4.50;3.55;;;;;;;15.94;93.38;100826.34;5055662;28;20355;-74
2022/08/06 05:22:00;;;;;;;5.18;3.63;;;;;;;15.87;94.11;100826.81;5055486;28;20029;-74
2022/08/06 05:24:27;;;;;;;4.75;3.55;;;;;;;15.84;94.46;100830.75;5055719;28;20390;-74
2022/08/06 05:26:53;;;;;;;5.47;2.90;;;;;;;15.82;95.01;100818.94;5056649;28;20028;-74
2022/08/06 05:29:20;;;;;;;4.18;3.08;;;;;;;15.81;95.71;100831.81;5055391;28;20518;-75
2022/08/06 05:31:45;;;;;;;5.35;3.28;;;;;;;15.79;96.07;100817.91;5055822;28;20033;-73
2022/08/06 05:34:11;;;;;;;4.85;3.17;;;;;;;15.82;96.34;100831.25;5038796;28;20031;-74
2022/08/06 05:36:38;;;;;;;7.43;3.55;;;;;;;15.81;96.51;100826.78;5055182;28;20477;-74
2022/08/06 05:39:03;;;;;;;3.92;3.00;;;;;;;15.85;96.80;100830.25;5056208;28;20052;-74
2022/08/06 05:41:29;;;;;;;3.80;3.22;;;;;;;15.87;97.16;100836.25;5056598;28;20029;-74
2022/08/06 05:43:54;;;;;;;5.60;3.92;;;;;;;15.84;97.18;100831.53;5056399;28;20112;-74
2022/08/06 05:46:21;;;;;;;6.13;4.28;;;;;;;15.91;97.21;100833.91;5056409;28;20465;-74
2022/08/06 05:49:03;;;;;;;4.45;4.05;;;;;;;15.91;97.37;100844.69;5056508;28;20033;-74
2022/08/06 05:51:42;;;;;;;7.32;4.22;;;;;;;15.93;97.37;100850.72;5056599;28;20044;-74
2022/08/06 05:54:16;;;;;;;4.30;3.90;;;;;;;15.87;97.48;100859.31;5055198;28;20036;-74
2022/08/06 05:56:43;;;;;;;4.40;3.58;;;;;;;15.85;97.46;100858.28;5055049;28;20102;-74
2022/08/06 05:59:14;;;;;;;5.78;3.92;;;;;;;15.79;97.88;100858.25;5055388;28;20028;-75
2022/08/06 06:01:40;;;;;;;;;;;;;;;15.80;98.14;100871.34;5038354;28;20481;-74
2022/08/06 06:04:05;;;;;;;4.75;4.00;;;;;;;15.77;98.34;100872.38;5054758;28;19909;-75
2022/08/06 06:06:31;;;;;;;9.05;3.88;;;;;;;15.76;98.84;100864.25;5054892;28;20120;-74
2022/08/06 06:08:57;;;;;;;4.93;4.35;;;;;;;15.77;98.71;100865.81;5054544;28;20107;-73
2022/08/06 06:11:22;;;;;;;4.75;4.07;;;;;;;15.78;98.76;100873.94;5055886;28;20453;-75
2022/08/06 06:13:48;;;;;;;5.10;4.18;;;;;;;15.78;99.03;100871.06;5054702;28;20044;-76
2022/08/06 06:17:04;;;;;;;4.63;4.13;;;;;;;15.74;99.05;100850.34;5054449;28;20035;-75
2022/08/06 06:19:40;;;;;;;7.20;4.43;;;;;;;15.86;99.46;100872.16;4974723;28;20503;-75
2022/08/06 06:22:34;;;;;;;4.63;3.70;;;;;;;15.89;99.35;100868.25;4974733;28;20030;-75
2022/08/06 06:25:04;;;;;;;9.18;4.25;;;;;;;15.90;99.12;100869.84;5026991;28;20041;-74
2022/08/06 06:27:48;;;;;;;4.93;4.40;;;;;;;15.95;99.04;100868.28;5054120;28;20029;-74
2022/08/06 06:30:21;;;;;;;7.88;4.25;;;;;;;15.98;99.01;100887.41;5054245;28;20025;-74
2022/08/06 06:33:05;;;;;;;6.53;4.85;;;;;;;16.04;98.80;100885.34;5053929;28;20048;-74
2022/08/06 06:35:53;;;;;;;4.40;4.00;;;;;;;16.10;98.43;100889.06;5054142;28;20358;-74
2022/08/06 06:38:26;;;;;;;4.22;3.83;;;;;;;16.11;98.15;100891.41;5037189;28;20048;-74
2022/08/06 06:41:11;;;;;;;7.47;4.50;;;;;;;16.16;97.57;100901.38;5055284;28;20024;-75
2022/08/06 06:43:39;;;;;;;5.20;4.15;;;;;;;16.18;97.37;100913.19;5055452;28;20106;-75
2022/08/06 06:46:11;;;;;;;6.72;4.53;;;;;;;16.20;96.86;100913.50;5055125;28;20033;-75
2022/08/06 06:49:13;;;;;;;6.90;5.15;;;;;;;16.24;96.48;100919.00;5053666;28;20421;-75
2022/08/06 06:51:50;;;;;;;9.20;5.55;;;;;;;16.28;96.46;100923.22;5054770;28;20067;-74
2022/08/06 06:54:20;;;;;;;5.20;4.22;;;;;;;16.31;96.22;100927.94;5053842;28;20108;-74
2022/08/06 06:56:47;;;;;;;4.93;4.43;;;;;;;16.37;96.13;100934.53;5053848;28;20029;-74
2022/08/06 06:59:18;;;;;;;3.63;3.33;;;;;;;16.40;95.91;100939.25;5053466;28;20496;-74
2022/08/06 07:01:45;;;;;;;8.13;3.92;;;;;;;16.46;95.65;100942.94;5053414;28;20055;-75
2022/08/06 07:04:13;;;;;;;3.97;3.65;;;;;;;16.50;95.58;100940.59;5036659;28;20108;-74
2022/08/06 07:06:40;;;;;;;5.47;4.03;;;;;;;16.57;95.46;100939.34;5054836;28;20037;-74
2022/08/06 07:09:06;;;;;;;7.85;4.25;;;;;;;16.63;95.25;100933.59;5053216;28;20098;-75
2022/08/06 07:11:33;;;;;;;4.97;3.50;;;;;;;16.70;94.91;100941.75;5053312;28;20155;-74
2022/08/06 07:13:59;;;;;;;6.25;3.88;;;;;;;16.75;94.53;100950.41;5053522;28;20056;-74
2022/08/06 07:16:26;;;;;;;5.45;3.78;;;;;;;16.79;94.08;100945.19;5053264;28;20528;-74
2022/08/06 07:18:53;;;;;;;5.72;3.60;;;;;;;16.84;93.72;100952.28;5053056;28;20374;-74
2022/08/06 07:21:19;;;;;;;7.00;3.75;;;;;;;16.85;93.53;100945.19;5053143;28;20474;-75
2022/08/06 07:23:46;;;;;;;9.18;3.63;;;;;;;16.86;93.10;100932.34;5053020;28;20032;-75
2022/08/06 07:26:17;;;;;;;5.00;3.50;;;;;;;16.93;92.30;100944.19;5052798;28;20058;-75
2022/08/06 07:28:43;;;;;;;5.05;3.75;;;;;;;17.01;91.82;100963.84;5052876;28;20493;-75
2022/08/06 07:31:11;;;;;;;7.57;3.95;;;;;;;17.05;91.43;100958.59;5052621;28;20512;-74
2022/08/06 07:33:39;;;;;;;7.88;3.65;;;;;;;17.11;90.57;100957.31;5052745;28;20033;-75
2022/08/06 07:36:05;;;;;;;7.95;3.80;;;;;;;17.16;90.62;100968.09;5052754;28;20020;-75
2022/08/06 07:38:33;;;;;;;4.20;3.55;;;;;;;17.20;89.78;100979.38;5035572;28;20482;-75
2022/08/06 07:41:02;;;;;;;5.00;3.30;;;;;;;17.24;89.42;100991.50;5052688;28;20107;-74
2022/08/06 07:43:57;;;;;;;3.60;3.30;;;;;;;17.26;89.06;100994.63;5053970;28;20359;-75
2022/08/06 07:46:26;;;;;;;5.47;3.38;;;;;;;17.26;88.42;100992.53;5035945;28;20037;-75
2022/08/06 07:48:57;;;;;;;5.47;3.25;;;;;;;17.28;88.80;100992.00;5052629;28;20025;-75
2022/08/06 07:51:23;;;;;;;;;;;;;;;17.32;87.93;100999.09;5053144;28;20029;-75
2022/08/06 07:53:50;;;;;;;6.82;3.25;;;;;;;17.31;87.96;101011.97;5052698;28;19979;-74
2022/08/06 07:56:15;;;;;;;4.30;3.60;;;;;;;17.30;87.82;101013.28;5052300;28;20044;-75
2022/08/06 07:58:41;;;;;;;4.22;3.83;;;;;;;17.44;87.19;101025.13;5053698;28;20397;-75
2022/08/06 08:01:07;;;;;;;6.60;3.53;;;;;;;17.49;87.11;101019.38;5052374;28;20032;-75
2022/08/06 08:06:20;;;;;;;4.53;3.67;;;;;;;17.60;85.92;101030.94;5052696;28;20035;-75
2022/08/06 08:08:46;;;;;;;4.45;3.63;;;;;;;17.67;86.04;101029.63;5053391;28;20039;-75
2022/08/06 08:11:13;;;;;;;8.85;4.20;;;;;;;17.78;86.02;101041.97;5052126;28;20107;-75
2022/08/06 08:13:39;;;;;;;7.80;4.15;;;;;;;17.91;85.21;101041.47;5052362;28;20029;-73
2022/08/06 08:16:06;;;;;;;6.15;4.30;;;;;;;18.03;84.72;101053.81;5053403;28;20593;-75
2022/08/06 08:18:32;;;;;;;5.68;4.40;;;;;;;18.06;83.31;101073.00;5052062;28;20112;-74
2022/08/06 08:21:01;;;;;;;9.18;4.65;;;;;;;18.08;83.10;101074.03;5052286;28;20119;-75
2022/08/06 08:23:30;;;;;;;4.40;4.00;;;;;;;18.12;82.79;101076.69;5053461;28;20386;-75
2022/08/06 08:25:57;;;;;;;7.65;3.85;;;;;;;18.14;82.63;101065.34;5051883;28;20027;-75
2022/08/06 08:28:23;;;;;;;6.20;4.03;;;;;;;18.10;81.14;101087.97;5051843;28;20025;-75
2022/08/06 08:30:49;;;;;;;4.68;4.03;;;;;;;18.05;81.08;101083.00;5053592;28;20358;-75
2022/08/06 08:33:15;;;;;;;6.53;4.05;;;;;;;18.06;81.47;101088.25;5053254;28;20382;-74
2022/08/06 08:35:41;;;;;;;6.72;4.00;;;;;;;18.13;81.50;101090.59;5051689;28;20025;-75
2022/08/06 08:38:06;;;;;;;4.85;3.53;;;;;;;18.24;81.60;101090.59;5052728;28;20028;-74
2022/08/06 08:40:34;;;;;;;5.88;3.30;;;;;;;18.27;80.96;101080.88;5053306;28;20044;-75
2022/08/06 08:43:01;;;;;;;3.33;3.05;;;;;;;18.41;79.93;101086.94;5053096;28;20025;-75
2022/08/06 08:45:28;;;;;;;3.70;3.22;;;;;;;18.44;79.32;101091.66;5051971;28;20478;-74
2022/08/06 08:47:53;;;;;;;6.00;3.67;;;;;;;18.55;79.73;101095.31;5053003;28;20429;-75
2022/08/06 08:50:21;;;;;;;3.63;3.13;;;;;;;18.64;78.88;101097.13;5053207;28;20051;-75
2022/08/06 08:52:48;;;;;;;4.45;3.35;;;;;;;18.75;78.54;101100.00;5052137;28;20033;-74
2022/08/06 08:55:16;;;;;;;6.93;3.45;;;;;;;18.88;77.67;101102.31;5052948;28;20028;-74
2022/08/06 08:57:42;;;;;;;5.70;3.20;;;;;;;19.08;77.84;101104.88;5053129;28;20056;-74
2022/08/06 09:00:08;;;;;;;3.25;2.63;;;;;;;19.31;76.47;101091.13;5053089;28;20439;-74
2022/08/06 09:02:36;;;;;;;3.28;2.97;;;;;;;19.66;75.66;101116.47;5051778;28;20024;-75
2022/08/06 09:05:02;;;;;;;2.95;2.60;;;;;;;19.80;73.68;101116.09;5052744;28;20103;-75
2022/08/06 09:07:28;;;;;;;5.95;3.13;;;;;;;19.93;72.48;101116.28;5052821;28;20540;-74
2022/08/06 09:09:54;;;;;;;2.83;2.50;;;;;;;20.09;71.71;101128.31;5052911;28;20033;-75
2022/08/06 09:12:20;;;;;;;4.68;3.17;;;;;;;20.26;71.55;101129.72;5051509;28;20040;-75
2022/08/06 09:14:46;;;;;;;4.63;2.72;;;;;;;20.32;70.80;101133.38;5052672;28;20033;-75
2022/08/06 09:17:12;;;;;;;5.28;2.83;;;;;;;20.33;69.56;101131.25;5051251;28;20028;-75
2022/08/06 09:19:37;;;;;;;3.25;2.55;;;;;;;20.28;68.67;101135.78;5051483;28;20037;-74
2022/08/06 09:22:03;;;;;;;3.28;2.97;;;;;;;20.26;68.80;101141.34;5052990;28;20434;-74
2022/08/06 09:24:29;;;;;;;5.05;2.75;;;;;;;20.29;69.22;101136.56;5052552;28;20462;-74
2022/08/06 09:27:01;;;;;;;4.28;2.75;;;;;;;20.31;68.81;101133.91;5052664;28;20037;-75
2022/08/06 09:29:26;;;;;;;3.17;2.30;;;;;;;20.32;68.45;101138.38;5052343;28;20032;-75
2022/08/06 09:31:52;;;;;;;3.60;2.30;;;;;;;20.43;68.73;101138.28;5052485;28;20028;-75
2022/08/06 09:34:17;;;;;;;3.10;2.35;;;;;;;20.57;67.97;101142.91;5052523;28;20028;-74
2022/08/06 09:36:44;;;;;;;5.60;4.75;;;;;;;20.70;67.30;101143.06;5053001;28;20032;-75
2022/08/06 09:39:10;;;;;;;5.18;2.40;;;;;;;20.79;66.55;101153.56;5050986;28;20358;-75
2022/08/06 09:41:48;;;;;;;6.30;2.35;;;;;;;20.87;66.22;101147.91;5051096;28;20029;-75
2022/08/06 09:44:13;;;;;;;3.45;2.47;;;;;;;20.94;65.10;101158.94;5051327;28;20419;-75
2022/08/06 09:46:40;;;;;;;3.60;2.25;;;;;;;20.98;65.00;101166.00;5052366;28;20497;-74
2022/08/06 09:49:06;;;;;;;6.85;3.20;;;;;;;21.01;65.07;101159.09;5054436;28;20048;-74
2022/08/06 09:51:34;;;;;;;4.78;2.58;;;;;;;21.13;64.43;101169.28;5056239;28;20036;-74
2022/08/06 09:54:01;;;;;;;3.45;2.60;;;;;;;21.22;63.84;101168.91;5056049;28;20040;-75
2022/08/06 09:56:27;;;;;;;3.05;2.55;;;;;;;21.34;63.44;101162.91;5056065;28;20021;-75
2022/08/06 09:59:01;;;;;;;3.53;2.40;;;;;;;21.52;62.11;101168.81;5056001;28;20017;-74
2022/08/06 10:01:27;;;;;;;4.07;2.42;;;;;;;21.62;60.93;101172.13;5056150;28;20025;-75
2022/08/06 10:03:55;;;;;;;6.95;2.65;;;;;;;21.74;60.99;101173.50;5054573;28;20033;-74
2022/08/06 10:06:21;;;;;;;9.57;2.78;;;;;;;21.86;61.26;101174.16;5055956;28;20055;-74
2022/08/06 10:08:48;;;;;;;3.75;2.35;;;;;;;21.88;58.56;101180.22;5055880;28;20057;-76
2022/08/06 10:11:14;;;;;;;2.35;2.15;;;;;;;21.85;58.15;101173.34;5054658;28;20032;-75
2022/08/06 10:13:46;;;;;;;4.88;2.35;;;;;;;21.89;58.75;101173.81;5055718;28;20021;-75
2022/08/06 10:16:17;;;;;;;4.00;2.60;;;;;;;22.03;58.59;101166.72;5055890;28;20108;-75
2022/08/06 10:18:52;;;;;;;3.60;2.30;;;;;;;22.31;56.99;101180.88;5054426;28;20458;-74
2022/08/06 10:21:23;;;;;;;2.30;2.10;;;;;;;22.63;56.26;101185.88;5054408;28;20056;-76
2022/08/06 10:23:52;;;;;;;2.00;1.90;;;;;;;22.90;53.66;101179.59;5054405;28;20377;-76
2022/08/06 10:26:27;;;;;;;3.55;1.92;;;;;;;23.28;53.63;101182.28;5055567;28;20033;-75
2022/08/06 10:28:53;;;;;;;2.50;1.95;;;;;;;23.66;51.07;101180.69;5054271;28;20049;-75
2022/08/06 10:31:19;;;;;;;2.83;1.77;;;;;;;24.12;50.60;101184.13;5055641;28;20025;-75
2022/08/06 10:34:01;;;;;;;2.85;2.22;;;;;;;24.49;48.91;101183.78;5054408;28;20028;-76
2022/08/06 10:36:39;;;;;;;4.07;1.50;;;;;;;24.67;47.73;101179.06;5055262;28;20492;-75
2022/08/06 10:39:05;;;;;;;2.53;1.60;;;;;;;24.78;47.57;101184.59;5053964;28;20064;-76
2022/08/06 10:41:31;;;;;;;1.98;1.88;;;;;;;25.00;46.92;101186.16;5055372;28;20427;-75
2022/08/06 10:43:57;;;;;;;2.33;2.13;;;;;;;25.22;46.84;101176.75;5053982;28;20049;-74
2022/08/06 10:46:23;;;;;;;2.92;1.90;;;;;;;25.48;46.17;101175.72;5054063;28;20389;-74
2022/08/06 10:48:48;;;;;;;1.70;1.60;;;;;;;25.81;45.90;101173.94;5054001;28;20104;-75
2022/08/06 10:51:15;;;;;;;3.03;2.17;;;;;;;26.08;44.03;101180.25;5054977;28;20113;-75
2022/08/06 10:53:43;;;;;;;3.63;2.03;;;;;;;26.15;42.31;101182.47;5053985;28;20052;-75
2022/08/06 10:56:09;;;;;;;2.35;1.63;;;;;;;26.06;41.75;101186.72;5054926;28;20036;-75
2022/08/06 10:58:36;;;;;;;2.55;2.05;;;;;;;26.01;42.22;101181.81;5055206;28;20570;-75
2022/08/06 11:01:17;;;;;;;4.10;1.88;;;;;;;25.92;40.27;101173.59;5053289;28;20021;-74
2022/08/06 11:04:02;;;;;;;2.00;1.83;;;;;;;25.83;40.92;101182.91;5053419;28;20032;-75
2022/08/06 11:06:34;;;;;;;1.98;1.88;;;;;;;25.93;41.36;101178.84;5037554;28;20033;-75
2022/08/06 11:09:08;;;;;;;4.65;2.30;;;;;;;26.05;40.92;101172.66;5054677;28;20033;-75
2022/08/06 11:11:56;;;;;;;3.92;1.95;;;;;;;26.06;41.02;101165.44;5054683;28;20108;-75
2022/08/06 11:14:21;;;;;;;1.70;1.60;;;;;;;25.98;41.26;101180.03;5055211;28;20053;-75
2022/08/06 11:16:55;;;;;;;2.35;2.13;;;;;;;25.85;40.83;101157.56;5053723;28;20063;-75
2022/08/06 11:19:37;;;;;;;2.95;1.75;;;;;;;25.82;41.00;101163.81;5053261;28;20465;-74
2022/08/06 11:22:02;;;;;;;3.67;2.00;;;;;;;25.80;41.61;101157.72;5054420;28;20025;-75
2022/08/06 11:24:28;;;;;;;2.28;2.08;;;;;;;25.85;41.72;101156.78;5053066;28;20496;-75
2022/08/06 11:26:53;;;;;;;2.05;1.60;;;;;;;25.82;41.01;101158.72;5054341;28;20469;-75
2022/08/06 11:29:18;;;;;;;1.85;1.75;;;;;;;25.80;40.44;101167.31;5053087;28;20432;-75
2022/08/06 11:31:49;;;;;;;3.45;1.83;;;;;;;25.91;40.21;101155.25;5054245;28;20029;-75
2022/08/06 11:34:19;;;;;;;4.78;1.80;;;;;;;26.04;39.25;101163.06;5054134;28;20021;-74